Time;durP1;ratioP1;P1;durP2;ratioP2;P2;SDS_P1;SDS_P2;PMS_P1;PMS_P2;Temp;Humidity;BMP_temperature;BMP_pressure;BME280_temperature;BME280_humidity;BME280_pressure;Samples;Min_cycle;Max_cycle;Signal;HPM_P1;HPM_P2
2024/02/23 00:01:54;;;;;;;12.52;7.30;;;;;;;;;;5051087;28;20669;-78
2024/02/23 00:04:59;;;;;;;11.75;7.40;;;;;;;;;;5052080;28;20062;-79
2024/02/23 00:08:03;;;;;;;12.98;7.80;;;;;;;;;;5051630;28;20037;-79
2024/02/23 00:11:07;;;;;;;10.52;8.13;;;;;;;;;;5051351;28;20049;-79
2024/02/23 00:14:12;;;;;;;9.68;7.57;;;13.80;96.50;;;;;;5051791;28;20037;-79
2024/02/23 00:17:17;;;;;;;11.05;7.10;;;;;;;;;;5039499;28;20048;-78
2024/02/23 00:20:21;;;;;;;7.93;7.07;;;;;;;;;;5051466;28;20044;-78
2024/02/23 00:23:25;;;;;;;10.73;6.95;;;;;;;;;;5051446;28;20369;-79
2024/02/23 00:26:29;;;;;;;10.63;7.75;;;;;;;;;;5050553;28;20495;-79
2024/02/23 00:29:35;;;;;;;13.93;7.00;;;;;;;;;;5051220;28;20048;-79
2024/02/23 00:32:39;;;;;;;9.98;7.15;;;;;;;;;;5051138;28;20053;-79
2024/02/23 00:35:44;;;;;;;14.40;7.00;;;;;;;;;;5051211;28;20037;-79
2024/02/23 00:38:48;;;;;;;11.48;6.90;;;;;;;;;;5050831;28;20041;-79
2024/02/23 00:41:52;;;;;;;10.23;7.07;;;;;;;;;;5051083;28;20044;-79
2024/02/23 00:44:57;;;;;;;10.65;6.80;;;;;;;;;;5050034;28;20366;-80
2024/02/23 00:48:02;;;;;;;10.30;7.85;;;;;;;;;;5050155;28;20044;-78
2024/02/23 00:51:07;;;;;;;9.73;7.50;;;;;;;;;;5050796;28;20036;-78
2024/02/23 00:54:11;;;;;;;11.93;7.25;;;;;;;;;;5050691;28;20049;-79
2024/02/23 00:57:16;;;;;;;11.50;7.25;;;;;;;;;;5050754;28;20041;-79
2024/02/23 01:00:21;;;;;;;13.00;7.72;;;;;;;;;;5049689;28;20045;-79
2024/02/23 01:03:25;;;;;;;13.07;7.93;;;;;;;;;;5050267;28;20033;-79
2024/02/23 01:06:29;;;;;;;12.18;8.27;;;;;;;;;;5050870;28;20045;-81
2024/02/23 01:09:34;;;;;;;15.77;8.10;;;;;;;;;;5049946;28;20054;-77
2024/02/23 01:12:38;;;;;;;15.48;8.30;;;;;;;;;;5049587;28;20049;-79
2024/02/23 01:15:42;;;;;;;12.73;8.30;;;;;;;;;;5050639;28;20045;-78
2024/02/23 01:18:47;;;;;;;14.43;8.25;;;;;;;;;;5054007;28;20033;-79
2024/02/23 01:21:59;;;;;;;12.82;8.43;;;;;;;;;;5053769;28;20045;-80
2024/02/23 01:25:03;;;;;;;10.85;8.20;;;;;;;;;;5054501;28;20500;-79
2024/02/23 01:28:08;;;;;;;14.35;8.15;;;;;;;;;;5053518;28;20396;-78
2024/02/23 01:31:13;;;;;;;15.23;8.15;;;;;;;;;;5054489;28;20052;-79
2024/02/23 01:34:17;;;;;;;16.95;9.00;;;;;;;;;;5053394;28;20429;-78
2024/02/23 01:37:21;;;;;;;12.02;8.52;;;;;;;;;;5042403;28;20037;-78
2024/02/23 01:40:26;;;;;;;15.18;9.15;;;;;;;;;;5054530;28;20037;-77
2024/02/23 01:43:30;;;;;;;12.85;8.95;;;;;;;;;;5054524;28;20037;-78
2024/02/23 01:46:35;;;;;;;14.32;9.27;;;;;;;;;;5053769;28;20044;-79
2024/02/23 01:49:39;;;;;;;11.55;8.63;;;;;;;;;;5053560;28;20041;-79
2024/02/23 01:52:43;;;;;;;13.07;8.82;;;;;;;;;;5054132;28;20057;-78
2024/02/23 01:55:48;;;;;;;16.42;9.00;;;;;;;;;;5054142;28;20037;-78
2024/02/23 01:58:53;;;;;;;15.10;9.25;;;;;;;;;;5054101;28;20033;-78
2024/02/23 02:01:58;;;;;;;15.73;8.48;;;;;;;;;;5041876;28;20386;-78
2024/02/23 02:05:03;;;;;;;12.00;8.90;;;;;;;;;;5053226;28;20045;-79
2024/02/23 02:08:07;;;;;;;10.15;8.07;;;;;;;;;;5041648;28;20517;-78
2024/02/23 02:11:11;;;;;;;13.02;8.75;;;;;;;;;;5054171;28;20041;-78
2024/02/23 02:14:16;;;;;;;12.77;8.60;;;14.30;97.60;;;;;;5053755;28;20041;-79
2024/02/23 02:17:21;;;;;;;13.70;8.80;;;;;;;;;;5053868;28;20055;-78
2024/02/23 02:20:28;;;;;;;16.23;8.77;;;14.20;97.40;;;;;;5052900;28;20048;-78
2024/02/23 02:23:32;;;;;;;10.43;8.73;;;;;;;;;;5052811;28;20499;-78
2024/02/23 02:26:36;;;;;;;11.48;8.55;;;;;;;;;;5053588;28;20038;-79
2024/02/23 02:29:41;;;;;;;13.80;8.48;;;;;;;;;;5052943;28;20055;-78
2024/02/23 02:32:45;;;;;;;11.02;8.55;;;;;;;;;;5053426;28;20041;-78
2024/02/23 02:35:49;;;;;;;11.80;7.63;;;;;;;;;;5053396;28;20056;-80
2024/02/23 02:38:53;;;;;;;10.70;8.35;;;;;;;;;;5053422;28;20056;-78
2024/02/23 02:41:58;;;;;;;13.25;8.10;;;;;;;;;;5053108;28;20032;-79
2024/02/23 02:45:02;;;;;;;14.20;8.55;;;;;;;;;;5040980;28;20033;-79
2024/02/23 02:48:07;;;;;;;11.45;8.50;;;;;;;;;;5053249;28;20576;-78
2024/02/23 02:51:11;;;;;;;11.82;8.63;;;;;;;;;;5052403;28;20040;-79
2024/02/23 02:54:16;;;;;;;10.00;8.20;;;;;;;;;;5052256;28;20052;-78
2024/02/23 02:57:20;;;;;;;12.65;8.85;;;;;;;;;;5040774;28;20045;-78
2024/02/23 03:00:25;;;;;;;13.45;8.65;;;;;;;;;;5052729;28;20409;-78
2024/02/23 03:03:29;;;;;;;14.73;8.52;;;;;;;;;;5052940;28;20040;-78
2024/02/23 03:06:34;;;;;;;12.27;8.50;;;;;;;;;;5052975;28;20040;-79
2024/02/23 03:09:38;;;;;;;12.43;9.18;;;;;;;;;;5040402;28;20041;-77
2024/02/23 03:12:43;;;;;;;13.93;8.80;;;;;;;;;;5052676;28;20409;-78
2024/02/23 03:15:47;;;;;;;12.70;8.38;;;;;;;;;;5051538;28;20028;-79
2024/02/23 03:18:51;;;;;;;12.75;8.25;;;;;;;;;;5051927;28;20041;-78
2024/02/23 03:21:55;;;;;;;16.80;8.93;;;;;;;;;;5052620;28;20048;-78
2024/02/23 03:25:00;;;;;;;13.00;8.98;;;;;;;;;;5052169;28;20040;-80
2024/02/23 03:28:04;;;;;;;15.20;8.93;;;;;;;;;;5052411;28;20041;-79
2024/02/23 03:31:09;;;;;;;11.60;8.95;;;;;;;;;;5051490;28;20041;-79
2024/02/23 03:34:13;;;;;;;10.77;8.57;;;;;;;;;;5051320;28;20045;-79
2024/02/23 03:37:17;;;;;;;12.73;9.38;;;;;;;;;;5052238;28;20367;-80
2024/02/23 03:40:22;;;;;;;12.20;8.73;;;;;;;;;;5050723;28;20043;-78
2024/02/23 03:43:27;;;;;;;12.23;8.93;;;;;;;;;;5051752;28;20045;-78
2024/02/23 03:46:31;;;;;;;14.02;8.98;;;;;;;;;;5052223;28;20504;-78
2024/02/23 03:49:35;;;;;;;12.95;8.13;;;;;;;;;;5052544;28;20040;-78
2024/02/23 03:52:40;;;;;;;13.95;8.55;;;;;;;;;;5050997;28;20041;-77
2024/02/23 03:55:44;;;;;;;14.25;8.68;;;;;;;;;;5051035;28;20549;-78
2024/02/23 03:58:48;;;;;;;12.65;9.07;;;;;;;;;;5050708;28;20037;-77
2024/02/23 04:01:52;;;;;;;14.02;8.57;;;;;;;;;;5051553;28;20037;-78
2024/02/23 04:04:57;;;;;;;12.30;9.13;;;;;;;;;;5050814;28;20041;-77
2024/02/23 04:08:01;;;;;;;16.73;9.40;;;;;;;;;;5051744;28;20043;-78
2024/02/23 04:11:05;;;;;;;16.00;8.93;;;;;;;;;;5050593;28;20044;-80
2024/02/23 04:14:09;;;;;;;15.05;9.30;;;;;;;;;;5051285;28;20054;-78
2024/02/23 04:17:14;;;;;;;13.48;9.32;;;;;;;;;;5050864;28;20045;-79
2024/02/23 04:20:18;;;;;;;23.80;10.30;;;;;;;;;;5050664;28;20045;-78
2024/02/23 04:23:22;;;;;;;15.15;10.38;;;;;;;;;;5051510;28;20036;-78
2024/02/23 04:26:27;;;;;;;15.57;9.73;;;;;;;;;;5051591;28;20053;-78
2024/02/23 04:29:32;;;;;;;16.05;10.05;;;;;;;;;;5051582;28;20140;-79
2024/02/23 04:32:36;;;;;;;13.23;9.68;;;;;;;;;;5050272;28;20048;-79
2024/02/23 04:35:40;;;;;;;13.73;8.75;;;;;;;;;;5051358;28;20045;-79
2024/02/23 04:38:45;;;;;;;11.50;8.15;;;;;;;;;;5051448;28;20052;-79
2024/02/23 04:41:49;;;;;;;15.25;8.88;;;;;;;;;;5050579;28;20052;-79
2024/02/23 04:44:54;;;;;;;14.38;9.27;;;;;;;;;;5050220;28;20053;-77
2024/02/23 04:47:59;;;;;;;11.63;8.07;;;;;;;;;;5038813;28;20041;-78
2024/02/23 04:51:04;;;;;;;13.25;8.60;;;;;;;;;;5051026;28;20393;-78
2024/02/23 04:54:08;;;;;;;14.98;8.80;;;;;;;;;;5050434;28;20060;-78
2024/02/23 04:57:12;;;;;;;11.60;8.55;;;;;;;;;;5049923;28;20044;-77
2024/02/23 05:00:17;;;;;;;16.33;8.65;;;;;;;;;;5049595;28;20052;-78
2024/02/23 05:03:21;;;;;;;12.93;7.60;;;;;;;;;;5050802;28;20037;-78
2024/02/23 05:06:26;;;;;;;11.43;7.10;;;;;;;;;;5050953;28;20694;-78
2024/02/23 05:09:31;;;;;;;10.70;6.80;;;;;;;;;;5050879;28;20037;-78
2024/02/23 05:12:35;;;;;;;9.73;6.93;;;;;;;;;;5050785;28;20061;-77
2024/02/23 05:15:40;;;;;;;12.35;7.38;;;;;;;;;;5049991;28;20037;-78
2024/02/23 05:18:46;;;;;;;13.10;7.00;;;;;;;;;;5051015;28;20049;-77
2024/02/23 05:21:50;;;;;;;11.98;7.05;;;;;;;;;;5038423;28;20045;-78
2024/02/23 05:24:54;;;;;;;9.77;6.93;;;;;;;;;;5050821;28;20518;-77
2024/02/23 05:27:58;;;;;;;11.48;6.78;;;;;;;;;;5050918;28;20037;-78
2024/02/23 05:31:04;;;;;;;10.95;7.55;;;;;;;;;;5050835;28;20044;-80
2024/02/23 05:34:08;;;;;;;11.35;6.82;;;;;;;;;;5049563;28;20048;-77
2024/02/23 05:37:13;;;;;;;10.40;6.53;;;;;;;;;;5050632;28;20029;-78
2024/02/23 05:40:17;;;;;;;7.30;6.00;;;;;;;;;;5050586;28;20040;-77
2024/02/23 05:43:21;;;;;;;8.02;6.10;;;;;;;;;;5050495;28;20033;-79
2024/02/23 05:46:26;;;;;;;8.25;6.00;;;;;;;;;;5049686;28;20485;-78
2024/02/23 05:49:31;;;;;;;10.23;6.80;;;;;;;;;;5049749;28;20036;-81
2024/02/23 05:52:36;;;;;;;11.85;6.43;;;;;;;;;;5049535;28;20052;-80
2024/02/23 05:55:40;;;;;;;10.50;7.03;;;;;;;;;;5050402;28;20402;-79
2024/02/23 05:58:45;;;;;;;8.80;6.75;;;;;;;;;;5050684;28;20048;-78
2024/02/23 06:01:49;;;;;;;9.65;6.93;;;;;;;;;;5038259;28;20568;-78
2024/02/23 06:04:53;;;;;;;9.75;6.80;;;;;;;;;;5052268;28;20053;-77
2024/02/23 06:07:57;;;;;;;11.75;7.55;;;;;;;;;;5053240;28;20021;-78
2024/02/23 06:11:03;;;;;;;10.75;6.70;;;;;;;;;;5053979;28;20032;-78
2024/02/23 06:14:07;;;;;;;12.93;6.10;;;;;;;;;;5052705;28;20052;-80
2024/02/23 06:17:12;;;;;;;12.50;6.90;;;;;;;;;;5053953;28;20041;-79
2024/02/23 06:20:16;;;;;;;8.80;6.38;;;;;;;;;;5053428;28;20472;-72
2024/02/23 06:23:22;;;;;;;9.55;6.43;;;;;;;;;;5053470;28;20041;-73
2024/02/23 06:26:26;;;;;;;12.27;6.47;;;;;;;;;;5053249;28;20033;-73
2024/02/23 06:29:30;;;;;;;12.27;6.00;;;;;;;;;;5052559;28;20045;-72
2024/02/23 06:32:35;;;;;;;12.05;6.20;;;;;;;;;;5052614;28;20370;-73
2024/02/23 06:35:39;;;;;;;12.73;5.70;;;;;;;;;;5052556;28;20033;-75
2024/02/23 06:38:43;;;;;;;10.02;5.82;;;;;;;;;;5053137;28;20044;-73
2024/02/23 06:41:47;;;;;;;9.55;5.63;;;;;;;;;;5052519;28;20046;-73
2024/02/23 06:44:53;;;;;;;9.15;5.35;;;;;;;;;;5052136;28;20044;-73
2024/02/23 06:47:57;;;;;;;11.65;5.70;;;;;;;;;;5053162;28;20041;-73
2024/02/23 06:51:03;;;;;;;15.98;5.90;;;;;;;;;;5051868;28;20409;-74
2024/02/23 06:54:08;;;;;;;10.05;5.65;;;;;;;;;;5052663;28;20061;-72
2024/02/23 06:57:12;;;;;;;10.85;6.28;;;;;;;;;;5052873;28;20046;-73
2024/02/23 07:00:16;;;;;;;17.20;7.10;;;;;;;;;;5052254;28;20044;-73
2024/02/23 07:03:20;;;;;;;13.85;6.75;;;;;;;;;;5052276;28;20501;-73
2024/02/23 07:06:25;;;;;;;11.27;5.75;;;;;;;;;;5051453;28;20049;-72
2024/02/23 07:09:29;;;;;;;7.85;5.63;;;;;;;;;;5040355;28;20401;-72
2024/02/23 07:12:34;;;;;;;11.43;6.22;;;;;;;;;;5052301;28;20088;-77
2024/02/23 07:15:38;;;;;;;11.48;5.22;;;;;;;;;;5052280;28;20037;-72
2024/02/23 07:18:42;;;;;;;25.15;6.13;;;;;;;;;;5052474;28;20041;-72
2024/02/23 07:21:47;;;;;;;16.30;5.32;;;;;;;;;;5051243;28;20036;-72
2024/02/23 07:24:51;;;;;;;11.18;5.20;;;;;;;;;;5051973;28;20048;-72
2024/02/23 07:27:55;;;;;;;7.82;5.75;;;19.50;91.80;;;;;;5052157;28;20052;-73
2024/02/23 07:30:59;;;;;;;17.08;5.82;;;;;;;;;;5052004;28;20060;-72
2024/02/23 07:34:04;;;;;;;9.93;5.18;;;;;;;;;;5051019;28;20052;-73
2024/02/23 07:37:09;;;;;;;12.02;5.47;;;;;;;;;;5052037;28;20037;-72
2024/02/23 07:40:13;;;;;;;9.30;5.15;;;;;;;;;;5052125;28;20539;-72
2024/02/23 07:43:18;;;;;;;16.27;5.55;;;;;;;;;;5051948;28;20045;-72
2024/02/23 07:46:22;;;;;;;12.02;5.40;;;;;;;;;;5051582;28;20033;-73
2024/02/23 07:49:28;;;;;;;15.25;5.20;;;;;;;;;;5051673;28;20032;-74
2024/02/23 07:52:32;;;;;;;11.32;5.20;;;;;;;;;;5051561;28;20029;-73
2024/02/23 07:55:36;;;;;;;14.85;5.55;;;;;;;;;;5051426;28;20037;-73
2024/02/23 07:58:41;;;;;;;10.60;5.07;;;;;;;;;;5050855;28;20037;-73
2024/02/23 08:01:45;;;;;;;11.65;5.43;;;;;;;;;;5051887;28;20041;-74
2024/02/23 08:04:50;;;;;;;10.48;4.30;;;;;;;;;;5051250;28;20393;-72
2024/02/23 08:07:54;;;;;;;11.15;4.82;;;;;;;;;;5051531;28;20041;-72
2024/02/23 08:10:59;;;;;;;11.85;4.68;;;;;;;;;;5051690;28;20492;-71
2024/02/23 08:14:04;;;;;;;10.93;5.40;;;;;;;;;;5051161;28;20052;-72
2024/02/23 08:17:08;;;;;;;14.40;5.43;;;;;;;;;;5051165;28;20029;-70
2024/02/23 08:20:12;;;;;;;17.30;4.85;;;;;;;;;;5051564;28;20045;-73
2024/02/23 08:23:16;;;;;;;11.95;5.15;;;;;;;;;;5051189;28;20033;-72
2024/02/23 08:26:21;;;;;;;16.75;7.55;;;;;;;;;;5050835;28;20049;-72
2024/02/23 08:29:26;;;;;;;16.88;6.25;;;16.30;90.00;;;;;;5051281;28;20029;-76
2024/02/23 08:32:30;;;;;;;8.15;4.32;;;;;;;;;;5050152;28;20507;-71
2024/02/23 08:35:35;;;;;;;40.17;6.13;;;;;;;;;;5051100;28;20465;-74
2024/02/23 08:38:39;;;;;;;14.82;4.97;;;;;;;;;;5050936;28;20048;-72
2024/02/23 08:41:44;;;;;;;21.23;5.57;;;;;;;;;;5050099;28;20044;-73
2024/02/23 08:44:48;;;;;;;10.40;4.47;;;;;;;;;;5050105;28;20037;-71
2024/02/23 08:47:53;;;;;;;13.32;4.90;;;;;;;;;;5050599;28;20056;-71
2024/02/23 08:50:57;;;;;;;16.48;5.00;;;;;;;;;;5051061;28;20048;-69
2024/02/23 08:54:04;;;;;;;27.25;5.10;;;;;;;;;;5050581;28;20049;-68
2024/02/23 08:57:08;;;;;;;13.23;4.40;;;;;;;;;;5051075;28;20044;-69
2024/02/23 09:00:14;;;;;;;11.48;4.28;;;;;;;;;;5050492;28;20049;-71
2024/02/23 09:03:18;;;;;;;19.65;4.38;;;;;;;;;;5050496;28;20037;-68
2024/02/23 09:06:22;;;;;;;14.75;4.60;;;;;;;;;;5050719;28;20052;-68
2024/02/23 09:09:26;;;;;;;10.27;4.05;;;;;;;;;;5050074;28;20052;-69
2024/02/23 09:12:31;;;;;;;17.77;4.10;;;;;;;;;;5051126;28;20033;-70
2024/02/23 09:15:35;;;;;;;9.98;4.03;;;;;;;;;;5050593;28;20402;-66
2024/02/23 09:18:40;;;;;;;18.13;4.03;;;;;;;;;;5050725;28;20033;-70
2024/02/23 09:21:44;;;;;;;4.63;3.17;;;;;;;;;;5049715;28;20045;-72
2024/02/23 09:24:48;;;;;;;18.92;4.88;;;;;;;;;;5050019;28;20033;-71
2024/02/23 09:27:52;;;;;;;9.30;3.80;;;;;;;;;;5050695;28;20029;-70
2024/02/23 09:30:57;;;;;;;9.00;3.88;;;;;;;;;;5051068;28;20037;-70
2024/02/23 09:34:02;;;;;;;24.95;4.43;;;;;;;;;;5050159;28;20044;-72
2024/02/23 09:37:07;;;;;;;10.77;3.80;;;;;;;;;;5050691;28;20041;-75
2024/02/23 09:40:11;;;;;;;15.27;3.92;;;;;;;;;;5052940;28;20050;-74
2024/02/23 09:43:16;;;;;;;6.38;3.88;;;17.30;81.30;;;;;;5054059;28;20037;-72
2024/02/23 09:46:21;;;;;;;22.80;4.15;;;;;;;;;;5053810;28;20035;-73
2024/02/23 09:49:26;;;;;;;13.75;4.63;;;;;;;;;;5053636;28;20044;-71
2024/02/23 09:52:30;;;;;;;12.38;4.43;;;;;;;;;;5053192;28;20048;-71
2024/02/23 09:55:34;;;;;;;19.20;5.15;;;;;;;;;;5054135;28;20048;-71
2024/02/23 09:58:41;;;;;;;12.93;4.22;;;17.50;85.10;;;;;;5053382;28;20029;-71
2024/02/23 10:01:45;;;;;;;19.20;4.10;;;;;;;;;;5053781;28;20056;-72
2024/02/23 10:04:50;;;;;;;12.13;4.35;;;;;;;;;;5054003;28;20044;-72
2024/02/23 10:07:56;;;;;;;13.10;4.47;;;;;;;;;;5053837;28;20508;-72
2024/02/23 10:11:02;;;;;;;11.98;3.92;;;;;;;;;;5052951;28;20044;-71
2024/02/23 10:14:06;;;;;;;9.65;3.63;;;;;;;;;;5052900;28;20056;-72
2024/02/23 10:17:10;;;;;;;12.40;4.72;;;;;;;;;;5053945;28;20472;-73
2024/02/23 10:20:14;;;;;;;13.05;3.50;;;;;;;;;;5052866;28;20036;-71
2024/02/23 10:23:20;;;;;;;19.05;3.95;;;;;;;;;;5053495;28;20481;-74
2024/02/23 10:26:26;;;;;;;11.55;3.95;;;;;;;;;;5052450;28;20036;-73
2024/02/23 10:29:30;;;;;;;8.60;4.38;;;17.80;82.10;;;;;;5053567;28;20047;-72
2024/02/23 10:32:35;;;;;;;13.88;3.75;;;;;;;;;;5052617;28;20060;-73
2024/02/23 10:35:40;;;;;;;5.13;3.35;;;;;;;;;;5053400;28;20048;-71
2024/02/23 10:38:46;;;;;;;8.15;3.70;;;19.60;81.80;;;;;;5053086;28;20033;-72
2024/02/23 10:42:01;;;;;;;13.27;4.20;;;20.00;83.50;;;;;;5052180;28;20542;-72
2024/02/23 10:45:06;;;;;;;10.57;4.63;;;;;;;;;;5052947;28;20047;-74
2024/02/23 10:48:11;;;;;;;21.85;4.55;;;;;;;;;;5052879;28;20484;-81
2024/02/23 10:51:15;;;;;;;11.88;4.07;;;;;;;;;;5051693;28;20047;-73
2024/02/23 10:54:21;;;;;;;9.98;3.72;;;;;;;;;;5052771;28;20049;-73
2024/02/23 10:57:25;;;;;;;21.15;4.28;;;;;;;;;;5052122;28;20037;-74
2024/02/23 11:00:30;;;;;;;8.90;4.20;;;;;;;;;;5052706;28;20044;-72
2024/02/23 11:03:37;;;;;;;8.57;3.60;;;;;;;;;;5052939;28;20037;-70
2024/02/23 11:06:42;;;;;;;7.82;3.80;;;;;;;;;;5051807;28;20041;-73
2024/02/23 11:09:58;;;;;;;9.95;4.00;;;18.70;79.00;;;;;;5052533;28;20037;-74
2024/02/23 11:13:02;;;;;;;11.13;4.32;;;;;;;;;;5052315;28;20377;-72
2024/02/23 11:16:11;;;;;;;17.73;4.15;;;;;;;;;;5052527;28;20432;-73
2024/02/23 11:19:15;;;;;;;10.10;3.83;;;;;;;;;;5052661;28;20401;-74
2024/02/23 11:22:35;;;;;;;11.23;4.28;;;19.40;80.40;;;;;;5051788;28;20052;-73
2024/02/23 11:25:39;;;;;;;11.95;4.22;;;;;;;;;;5051257;28;20072;-73
2024/02/23 11:28:44;;;;;;;11.10;4.85;;;;;;;;;;5052214;28;20508;-72
2024/02/23 11:31:55;;;;;;;8.30;3.70;;;17.90;79.00;;;;;;5051639;28;20037;-74
2024/02/23 11:35:02;;;;;;;7.88;3.65;;;19.10;79.40;;;;;;5050948;28;20055;-71
2024/02/23 11:38:06;;;;;;;17.02;3.92;;;;;;;;;;5051024;28;20483;-76
2024/02/23 11:41:10;;;;;;;12.75;3.78;;;;;;;;;;5052051;28;20040;-79
2024/02/23 11:44:17;;;;;;;12.00;4.45;;;;;;;;;;5051654;28;20040;-77
2024/02/23 11:47:21;;;;;;;8.50;4.15;;;;;;;;;;5051907;28;20492;-75
2024/02/23 11:50:26;;;;;;;9.25;3.78;;;;;;;;;;5039942;28;20342;-78
2024/02/23 11:53:30;;;;;;;20.42;4.15;;;;;;;;;;5051910;28;20041;-74
2024/02/23 11:56:34;;;;;;;10.13;4.30;;;;;;;;;;5051063;28;20049;-75
2024/02/23 11:59:41;;;;;;;15.25;3.97;;;18.80;80.00;;;;;;5051170;28;20105;-73
2024/02/23 12:02:48;;;;;;;6.38;4.18;;;;;;;;;;5037846;28;20044;-74
2024/02/23 12:05:53;;;;;;;11.45;4.57;;;;;;;;;;5051404;28;20374;-73
2024/02/23 12:08:57;;;;;;;14.40;5.05;;;;;;;;;;5050752;28;20162;-74
2024/02/23 12:12:04;;;;;;;16.90;4.97;;;;;;;;;;5051164;28;20136;-71
2024/02/23 12:15:08;;;;;;;10.25;4.88;;;;;;;;;;5051225;28;20052;-71
2024/02/23 12:18:12;;;;;;;8.10;4.57;;;;;;;;;;5051311;28;20041;-71
2024/02/23 12:21:16;;;;;;;14.95;4.75;;;;;;;;;;5051171;28;20044;-71
2024/02/23 12:24:21;;;;;;;14.27;5.50;;;;;;;;;;5050246;28;20037;-71
2024/02/23 12:27:26;;;;;;;20.83;6.65;;;18.30;86.80;;;;;;5050982;28;20037;-71
2024/02/23 12:30:32;;;;;;;18.60;5.97;;;;;;;;;;5050504;28;20044;-70
2024/02/23 12:33:39;;;;;;;13.38;5.38;;;;;;;;;;5051225;28;20037;-70
2024/02/23 12:36:46;;;;;;;17.20;5.97;;;16.00;87.00;;;;;;5050757;28;20471;-70
2024/02/23 12:39:51;;;;;;;16.00;5.72;;;;;;;;;;5051077;28;20048;-70
2024/02/23 12:42:55;;;;;;;13.10;6.25;;;;;;;;;;5051054;28;20049;-71
2024/02/23 12:46:01;;;;;;;20.08;6.05;;;;;;;;;;5051053;28;20051;-71
2024/02/23 12:49:05;;;;;;;13.25;5.60;;;;;;;;;;5050412;28;20033;-71
2024/02/23 12:52:10;;;;;;;21.10;5.38;;;;;;;;;;5050421;28;20400;-71
2024/02/23 12:55:15;;;;;;;18.45;5.75;;;;;;;;;;5050683;28;20060;-71
2024/02/23 12:58:19;;;;;;;15.48;6.65;;;;;;;;;;5050872;28;20041;-71
2024/02/23 13:01:24;;;;;;;16.55;6.38;;;;;;;;;;5050230;28;20506;-74
2024/02/23 13:04:28;;;;;;;20.25;6.13;;;;;;;;;;5049590;28;20037;-73
2024/02/23 13:07:33;;;;;;;13.60;5.28;;;;;;;;;;5050057;28;20048;-73
2024/02/23 13:10:37;;;;;;;19.08;5.32;;;;;;;;;;5049720;28;20526;-70
2024/02/23 13:13:41;;;;;;;10.52;5.30;;;;;;;;;;5052207;28;20050;-71
2024/02/23 13:16:46;;;;;;;12.55;3.95;;;;;;;;;;5053493;28;20041;-71
2024/02/23 13:19:50;;;;;;;15.32;4.18;;;;;;;;;;5054879;28;20045;-72
2024/02/23 13:22:55;;;;;;;12.98;4.72;;;;;;;;;;5053852;28;20045;-73
2024/02/23 13:26:02;;;;;;;10.68;3.70;;;;;;;;;;5054932;28;20446;-73
2024/02/23 13:29:07;;;;;;;12.93;3.80;;;;;;;;;;5053677;28;20052;-72
2024/02/23 13:32:11;;;;;;;13.73;4.30;;;;;;;;;;5054479;28;20405;-71
2024/02/23 13:35:16;;;;;;;13.38;4.30;;;;;;;;;;5054275;28;20052;-69
2024/02/23 13:38:21;;;;;;;14.13;4.53;;;;;;;;;;5054486;28;20032;-70
2024/02/23 13:41:25;;;;;;;9.23;4.18;;;;;;;;;;5054213;28;20048;-72
2024/02/23 13:44:30;;;;;;;11.23;3.60;;;;;;;;;;5053511;28;20037;-70
2024/02/23 13:47:35;;;;;;;15.30;3.45;;;18.20;80.40;;;;;;5053414;28;20070;-71
2024/02/23 13:50:39;;;;;;;6.90;3.67;;;;;;;;;;5054093;28;20036;-70
2024/02/23 13:53:44;;;;;;;11.18;4.07;;;;;;;;;;5053700;28;20055;-71
2024/02/23 13:56:48;;;;;;;22.35;4.32;;;;;;;;;;5052863;28;20370;-71
2024/02/23 13:59:52;;;;;;;9.98;4.40;;;;;;;;;;5053044;28;20476;-70
2024/02/23 14:02:57;;;;;;;16.25;4.10;;;;;;;;;;5052963;28;20045;-70
2024/02/23 14:06:01;;;;;;;23.33;4.75;;;;;;;;;;5054080;28;20041;-72
2024/02/23 14:09:05;;;;;;;18.77;4.57;;;;;;;;;;5053807;28;20041;-71
2024/02/23 14:12:10;;;;;;;14.07;5.13;;;;;;;;;;5053537;28;20045;-75
2024/02/23 14:15:14;;;;;;;18.50;5.03;;;;;;;;;;5053488;28;20060;-75
2024/02/23 14:18:19;;;;;;;18.75;4.20;;;;;;;;;;5052911;28;20043;-74
2024/02/23 14:21:25;;;;;;;19.52;5.72;;;;;;;;;;5053694;28;20037;-73
2024/02/23 14:24:29;;;;;;;13.90;4.38;;;;;;;;;;5052435;28;20516;-76
2024/02/23 14:27:33;;;;;;;14.40;4.40;;;;;;;;;;5053009;28;20032;-78
2024/02/23 14:30:40;;;;;;;8.98;4.10;;;;;;;;;;5053578;28;20037;-75
2024/02/23 14:33:44;;;;;;;11.23;4.55;;;;;;;;;;5053473;28;20049;-73
2024/02/23 14:36:48;;;;;;;14.13;4.85;;;;;;;;;;5052466;28;20056;-76
2024/02/23 14:39:52;;;;;;;10.40;4.60;;;;;;;;;;5053885;28;20634;-77
2024/02/23 14:42:57;;;;;;;10.10;4.55;;;;;;;;;;5053008;28;20210;-75
2024/02/23 14:46:01;;;;;;;17.83;5.60;;;;;;;;;;5052639;28;20033;-74
2024/02/23 14:49:07;;;;;;;14.30;5.90;;;17.40;88.40;;;;;;5053091;28;20044;-74
2024/02/23 14:52:11;;;;;;;24.88;4.85;;;;;;;;;;5052002;28;20064;-74
2024/02/23 14:55:15;;;;;;;18.50;7.18;;;;;;;;;;5052777;28;20053;-74
2024/02/23 14:58:20;;;;;;;23.60;10.50;;;;;;;;;;5053181;28;20033;-71
2024/02/23 15:01:24;;;;;;;13.15;4.38;;;;;;;;;;5051878;28;20056;-72
2024/02/23 15:04:29;;;;;;;11.40;4.78;;;;;;;;;;5040367;28;20492;-72
2024/02/23 15:07:34;;;;;;;12.43;4.63;;;;;;;;;;5051911;28;20401;-76
2024/02/23 15:10:38;;;;;;;16.27;5.50;;;;;;;;;;5052067;28;20089;-73
2024/02/23 15:13:42;;;;;;;22.30;5.00;;;;;;;;;;5052577;28;20044;-74
2024/02/23 15:16:46;;;;;;;14.25;5.28;;;;;;;;;;5052538;28;20041;-72
2024/02/23 15:19:51;;;;;;;18.23;5.10;;;;;;;;;;5052481;28;20048;-76
2024/02/23 15:22:57;;;;;;;20.00;5.00;;;;;;;;;;5052463;28;20040;-74
2024/02/23 15:26:00;;;;;;;15.85;4.40;;;;;;;;;;5051625;28;20495;-75
2024/02/23 15:29:05;;;;;;;37.40;5.03;;;;;;;;;;5052401;28;20044;-75
2024/02/23 15:32:12;;;;;;;22.58;4.28;;;;;;;;;;5052597;28;20394;-73
2024/02/23 15:35:17;;;;;;;18.88;5.13;;;;;;;;;;5050757;28;20040;-73
2024/02/23 15:38:21;;;;;;;17.05;5.05;;;;;;;;;;5051651;28;20033;-73
2024/02/23 15:41:26;;;;;;;15.52;4.80;;;;;;;;;;5051985;28;20132;-73
2024/02/23 15:44:30;;;;;;;14.88;4.65;;;;;;;;;;5051172;28;20052;-72
2024/02/23 15:47:35;;;;;;;15.18;4.40;;;;;;;;;;5039646;28;20525;-69
2024/02/23 15:50:39;;;;;;;15.15;5.50;;;;;;;;;;5052143;28;20045;-70
2024/02/23 15:53:43;;;;;;;15.52;5.55;;;;;;;;;;5051496;28;20041;-71
2024/02/23 15:56:48;;;;;;;12.77;4.45;;;;;;;;;;5051584;28;20033;-72
2024/02/23 15:59:52;;;;;;;17.75;5.03;;;;;;;;;;5051715;28;20051;-72
2024/02/23 16:02:56;;;;;;;14.50;4.28;;;;;;;;;;5051437;28;20056;-72
2024/02/23 16:06:01;;;;;;;16.23;4.60;;;;;;;;;;5051383;28;20045;-75
2024/02/23 16:09:08;;;;;;;15.15;4.78;;;;;;;;;;5051738;28;20041;-70
2024/02/23 16:12:13;;;;;;;14.05;4.78;;;17.50;89.80;;;;;;5051571;28;20040;-73
2024/02/23 16:15:18;;;;;;;18.08;5.07;;;;;;;;;;5051307;28;20075;-72
2024/02/23 16:18:22;;;;;;;10.48;5.15;;;;;;;;;;5051928;28;20045;-72
2024/02/23 16:21:26;;;;;;;11.25;4.78;;;;;;;;;;5050769;28;20049;-71
2024/02/23 16:24:31;;;;;;;16.42;4.80;;;;;;;;;;5050694;28;20041;-71
2024/02/23 16:27:35;;;;;;;17.40;5.13;;;;;;;;;;5051106;28;20059;-73
2024/02/23 16:30:39;;;;;;;11.85;4.95;;;;;;;;;;5050305;28;20064;-70
2024/02/23 16:33:44;;;;;;;13.05;4.88;;;;;;;;;;5050631;28;20056;-73
2024/02/23 16:36:48;;;;;;;16.65;4.40;;;;;;;;;;5050638;28;20064;-75
2024/02/23 16:39:52;;;;;;;23.05;4.80;;;;;;;;;;5049642;28;20037;-74
2024/02/23 16:42:57;;;;;;;32.75;4.90;;;18.40;90.50;;;;;;5050952;28;20389;-74
2024/02/23 16:46:02;;;;;;;20.17;4.55;;;;;;;;;;5050344;28;20048;-75
2024/02/23 16:49:06;;;;;;;21.52;5.10;;;;;;;;;;5050176;28;20060;-75
2024/02/23 16:52:11;;;;;;;12.35;4.63;;;;;;;;;;5050609;28;20042;-76
2024/02/23 16:55:16;;;;;;;16.60;5.35;;;18.10;90.60;;;;;;5050564;28;20044;-76
2024/02/23 16:58:22;;;;;;;18.40;4.47;;;;;;;;;;5050934;28;20492;-73
2024/02/23 17:01:26;;;;;;;18.20;5.13;;;;;;;;;;5051111;28;20056;-75
2024/02/23 17:04:30;;;;;;;16.98;5.03;;;;;;;;;;5050415;28;20044;-76
2024/02/23 17:07:35;;;;;;;22.10;4.63;;;;;;;;;;5050656;28;20048;-75
2024/02/23 17:10:39;;;;;;;17.67;4.65;;;;;;;;;;5050336;28;20050;-75
2024/02/23 17:13:44;;;;;;;16.75;5.22;;;;;;;;;;5050718;28;20487;-74
2024/02/23 17:16:48;;;;;;;13.85;4.35;;;;;;;;;;5050537;28;20056;-74
2024/02/23 17:19:52;;;;;;;22.50;5.15;;;;;;;;;;5050497;28;20033;-75
2024/02/23 17:22:56;;;;;;;20.63;6.40;;;;;;;;;;5050268;28;20048;-74
2024/02/23 17:26:01;;;;;;;18.92;5.38;;;;;;;;;;5050465;28;20217;-74
2024/02/23 17:29:07;;;;;;;27.10;6.82;;;;;;;;;;5050579;28;20473;-75
2024/02/23 17:32:11;;;;;;;15.15;6.03;;;;;;;;;;5050481;28;20489;-75
2024/02/23 17:35:15;;;;;;;25.48;7.20;;;;;;;;;;5050217;28;20048;-72
2024/02/23 17:38:20;;;;;;;26.60;5.07;;;;;;;;;;5050237;28;20048;-72
2024/02/23 17:41:24;;;;;;;20.80;5.95;;;;;;;;;;5050523;28;20033;-73
2024/02/23 17:44:29;;;;;;;11.00;4.78;;;;;;;;;;5050530;28;20048;-75
2024/02/23 17:47:33;;;;;;;14.73;5.25;;;;;;;;;;5050398;28;20037;-73
2024/02/23 17:50:37;;;;;;;14.90;5.13;;;;;;;;;;5049637;28;20373;-72
2024/02/23 17:53:42;;;;;;;20.58;5.68;;;;;;;;;;5050208;28;20048;-73
2024/02/23 17:56:48;;;;;;;15.02;5.63;;;;;;;;;;5050022;28;20393;-70
2024/02/23 17:59:52;;;;;;;13.50;5.30;;;;;;;;;;5050352;28;20053;-73
2024/02/23 18:02:56;;;;;;;15.93;4.95;;;;;;;;;;5053103;28;20041;-73